createdAt,value
2022-10-14T00:01:06.821Z,93.21
2022-10-14T00:03:08.666Z,93.27
2022-10-14T00:05:10.409Z,93.43
2022-10-14T00:07:11.587Z,93.65
2022-10-14T00:11:14.739Z,93.97
2022-10-14T00:13:15.783Z,94.04
2022-10-14T00:15:17.526Z,94.13
2022-10-14T00:17:18.638Z,94.2
2022-10-14T00:21:20.734Z,94.38
2022-10-14T00:23:22.231Z,94.4
2022-10-14T00:25:24.053Z,94.4
2022-10-14T00:27:25.903Z,94.39
2022-10-14T00:29:27.632Z,94.37
2022-10-14T00:31:29.342Z,94.41
2022-10-14T00:33:30.764Z,94.43
2022-10-14T00:35:32.294Z,94.42
2022-10-14T00:37:33.742Z,94.38
2022-10-14T00:39:35.619Z,94.4
2022-10-14T00:43:38.782Z,94.26
2022-10-14T00:45:40.642Z,94.3
2022-10-14T00:47:42.227Z,94.32
2022-10-14T00:49:43.646Z,94.32
2022-10-14T00:51:45.362Z,94.24
2022-10-14T00:53:47.219Z,94.31
2022-10-14T00:55:48.435Z,94.42
2022-10-14T00:57:49.665Z,94.48
2022-10-14T00:59:50.968Z,94.45
2022-10-14T01:01:52.825Z,94.44
2022-10-14T01:03:54.369Z,94.43
2022-10-14T01:05:55.803Z,94.53
2022-10-14T01:07:57.494Z,94.42
2022-10-14T01:09:59.361Z,94.36
2022-10-14T01:12:23.802Z,94.42
2022-10-14T01:14:02.661Z,94.51
2022-10-14T01:16:03.809Z,94.41
2022-10-14T01:18:05.375Z,94.44
2022-10-14T01:22:08.289Z,94.41
2022-10-14T01:24:09.260Z,94.42
2022-10-14T01:26:10.608Z,94.47
2022-10-14T01:28:12.125Z,94.56
2022-10-14T01:32:14.965Z,94.79
2022-10-14T01:34:16.198Z,94.77
2022-10-14T01:36:17.190Z,94.76
2022-10-14T01:38:18.462Z,94.93
2022-10-14T01:42:20.798Z,95.06
2022-10-14T01:44:22.151Z,95.03
2022-10-14T01:46:23.261Z,94.95
2022-10-14T01:48:25.159Z,94.94
2022-10-14T01:50:26.848Z,94.93
2022-10-14T01:52:28.780Z,94.91
2022-10-14T01:54:30.002Z,94.88
2022-10-14T01:56:31.263Z,94.94
2022-10-14T01:58:32.683Z,94.99
2022-10-14T02:00:34.468Z,95.04
2022-10-14T02:02:35.715Z,95.05
2022-10-14T02:04:36.981Z,95.17
2022-10-14T02:06:38.246Z,95.16
2022-10-14T02:08:39.513Z,95.17
2022-10-14T02:10:41.196Z,95.17
2022-10-14T02:12:42.976Z,95.11
2022-10-14T02:14:43.951Z,95.13
2022-10-14T02:16:45.270Z,95.16
2022-10-14T02:18:46.957Z,95.19
2022-10-14T02:20:48.702Z,95.11
2022-10-14T02:24:51.504Z,94.92
2022-10-14T02:26:52.873Z,94.93
2022-10-14T02:28:54.131Z,94.92
2022-10-14T02:30:55.932Z,94.94
2022-10-14T02:32:57.045Z,94.85
2022-10-14T02:34:58.098Z,94.93
2022-10-14T02:36:59.138Z,95
2022-10-14T02:39:00.982Z,95.08
2022-10-14T02:39:44.790Z,94.99
2022-10-14T02:41:46.344Z,94.77
2022-10-14T02:43:47.395Z,94.63
2022-10-14T02:45:48.913Z,94.47
2022-10-14T02:47:49.874Z,94.37
2022-10-14T02:51:53.061Z,94.55
2022-10-14T02:53:54.552Z,94.53
2022-10-14T02:55:56.414Z,94.42
2022-10-14T02:57:57.651Z,94.27
2022-10-14T03:02:00.447Z,94.16
2022-10-14T03:04:01.706Z,94.09
2022-10-14T03:06:02.591Z,94.18
2022-10-14T03:08:04.081Z,94.16
2022-10-14T03:10:05.196Z,94.28
2022-10-14T03:12:06.386Z,94.36
2022-10-14T03:14:08.279Z,94.43
2022-10-14T03:18:10.966Z,94.5
2022-10-14T03:20:12.459Z,94.59
2022-10-14T03:22:14.083Z,94.76
2022-10-14T03:24:15.718Z,94.7
2022-10-14T03:26:17.405Z,94.76
2022-10-14T03:28:19.312Z,94.8
2022-10-14T03:32:21.975Z,94.86
2022-10-14T03:34:23.577Z,94.88
2022-10-14T03:36:25.117Z,94.9
2022-10-14T03:38:26.975Z,94.95
2022-10-14T03:40:28.160Z,94.96
2022-10-14T03:42:29.314Z,94.92
2022-10-14T03:44:30.423Z,95.01
2022-10-14T03:46:32.146Z,95.07
2022-10-14T03:48:33.115Z,94.92
2022-10-14T03:50:34.694Z,94.85
2022-10-14T03:52:36.536Z,94.86
2022-10-14T03:54:37.939Z,94.89
2022-10-14T03:56:39.773Z,94.76
2022-10-14T03:58:40.896Z,94.74
2022-10-14T04:00:42.319Z,94.72
2022-10-14T04:02:43.836Z,94.78
2022-10-14T04:04:45.203Z,94.77
2022-10-14T04:06:46.797Z,94.79
2022-10-14T04:08:48.182Z,94.68
2022-10-14T04:10:49.509Z,94.48
2022-10-14T04:12:50.586Z,94.44
2022-10-14T04:14:52.496Z,94.47
2022-10-14T04:18:55.151Z,94.49
2022-10-14T04:20:56.347Z,94.41
2022-10-14T04:22:57.825Z,94.48
2022-10-14T04:24:59.191Z,94.63
2022-10-14T04:27:00.270Z,94.61
2022-10-14T04:29:02.152Z,94.75
2022-10-14T04:31:03.753Z,94.76
2022-10-14T04:33:05.377Z,94.71
2022-10-14T04:35:06.839Z,94.67
2022-10-14T04:37:08.172Z,94.59
2022-10-14T04:39:09.568Z,94.58
2022-10-14T04:43:13.244Z,94.63
2022-10-14T04:45:14.339Z,94.52
2022-10-14T04:47:16.055Z,94.59
2022-10-14T04:49:17.669Z,94.73
2022-10-14T04:51:18.825Z,94.86
2022-10-14T04:53:22.240Z,94.86
2022-10-14T04:55:21.241Z,94.85
2022-10-14T04:57:23.048Z,94.7
2022-10-14T04:59:24.759Z,94.68
2022-10-14T05:01:29.118Z,94.56
2022-10-14T05:03:27.365Z,94.57
2022-10-14T05:05:28.587Z,94.58
2022-10-14T05:07:29.887Z,94.56
2022-10-14T05:09:31.370Z,94.56
2022-10-14T05:11:32.825Z,94.52
2022-10-14T05:15:35.218Z,94.54
2022-10-14T05:17:36.522Z,94.58
2022-10-14T05:19:37.605Z,94.61
2022-10-14T05:23:40.682Z,94.7
2022-10-14T05:25:42.320Z,94.63
2022-10-14T05:27:43.955Z,94.54
2022-10-14T05:29:45.189Z,94.31
2022-10-14T05:31:46.671Z,94.33
2022-10-14T05:33:47.971Z,94.36
2022-10-14T05:35:58.453Z,94.45
2022-10-14T05:37:50.722Z,94.58
2022-10-14T05:39:52.598Z,94.67
2022-10-14T05:41:54.081Z,94.79
2022-10-14T05:43:55.912Z,94.78
2022-10-14T05:45:57.689Z,94.64
2022-10-14T05:47:59.080Z,94.52
2022-10-14T05:50:00.487Z,94.47
2022-10-14T05:54:02.613Z,94.54
2022-10-14T05:56:04.004Z,94.57
2022-10-14T05:58:05.589Z,94.64
2022-10-14T06:00:06.522Z,94.6
2022-10-14T06:02:08.382Z,94.72
2022-10-14T06:04:10.065Z,94.83
2022-10-14T06:06:11.320Z,94.84
2022-10-14T06:08:13.207Z,94.89
2022-10-14T06:10:14.200Z,94.85
2022-10-14T06:12:15.955Z,94.87
2022-10-14T06:14:17.705Z,94.92
2022-10-14T06:16:18.818Z,94.91
2022-10-14T06:18:20.375Z,94.87
2022-10-14T06:20:29.620Z,94.8
2022-10-14T06:24:31.798Z,94.92
2022-10-14T06:26:25.275Z,93.98
2022-10-14T06:28:26.898Z,92.59
2022-10-14T06:30:28.508Z,92.7
2022-10-14T06:32:29.587Z,92.95
2022-10-14T06:34:30.573Z,92.86
2022-10-14T06:36:31.793Z,92.64
2022-10-14T06:38:33.396Z,92.39
2022-10-14T06:40:34.888Z,92.14
2022-10-14T06:42:36.149Z,91.47
2022-10-14T06:44:37.357Z,89.05
2022-10-14T06:46:39.011Z,88.87
2022-10-14T06:48:40.554Z,89.94
2022-10-14T06:50:41.577Z,90.15
2022-10-14T06:52:42.619Z,90.92
2022-10-14T06:54:48.110Z,91.12
2022-10-14T06:56:45.554Z,90.99
2022-10-14T06:58:46.469Z,91.2
2022-10-14T07:00:48.327Z,91.03
2022-10-14T07:06:51.750Z,91.28
2022-10-14T07:08:52.856Z,91
2022-10-14T07:10:54.065Z,91.19
2022-10-14T07:12:55.451Z,91.3
2022-10-14T07:14:56.709Z,91.2
2022-10-14T07:16:58.359Z,91.54
2022-10-14T07:18:59.355Z,91.48
2022-10-14T07:21:00.735Z,91.25
2022-10-14T07:23:01.829Z,91.1
2022-10-14T07:25:03.118Z,91.73
2022-10-14T07:27:04.548Z,90.72
2022-10-14T07:29:05.782Z,91.7
2022-10-14T07:31:06.717Z,90.77
2022-10-14T07:33:08.134Z,91.04
2022-10-14T07:35:09.577Z,90.9
2022-10-14T07:37:10.884Z,90.8
2022-10-14T07:39:12.785Z,90.47
2022-10-14T07:41:14.241Z,90.57
2022-10-14T07:43:15.218Z,90.81
2022-10-14T07:45:16.837Z,90.58
2022-10-14T07:47:17.992Z,90.62
2022-10-14T07:49:19.827Z,90.37
2022-10-14T07:51:20.835Z,89.73
2022-10-14T07:53:22.413Z,89.76
2022-10-14T07:55:23.845Z,89.53
2022-10-14T07:57:25.467Z,89.93
2022-10-14T07:59:26.314Z,90.12
2022-10-14T08:01:28.207Z,89.38
2022-10-14T08:05:37.952Z,89.48
2022-10-14T08:07:31.366Z,88.91
2022-10-14T08:09:32.745Z,89.14
2022-10-14T08:11:34.238Z,89.17
2022-10-14T08:13:35.826Z,88.03
2022-10-14T08:15:37.414Z,88.17
2022-10-14T08:17:39.243Z,88.35
2022-10-14T08:19:40.745Z,87.08
2022-10-14T08:21:41.608Z,86.96
2022-10-14T08:23:42.966Z,85.82
2022-10-14T08:25:44.372Z,86.61
2022-10-14T08:27:45.499Z,85.76
2022-10-14T08:29:46.693Z,84.84
2022-10-14T08:31:47.650Z,84.87
2022-10-14T08:33:49.002Z,84.51
2022-10-14T08:37:50.975Z,85.67
2022-10-14T08:39:52.712Z,84.84
2022-10-14T08:41:54.498Z,84.64
2022-10-14T08:43:55.420Z,83.23
2022-10-14T08:47:58.153Z,83.3
2022-10-14T08:49:59.821Z,81.89
2022-10-14T08:52:01.529Z,82.14
2022-10-14T08:54:04.174Z,81.57
2022-10-14T08:56:05.714Z,82.31
2022-10-14T08:58:08.863Z,83.89
2022-10-14T09:00:08.016Z,83.9
2022-10-14T09:02:09.576Z,84.16
2022-10-14T09:04:11.170Z,83.44
2022-10-14T09:06:12.209Z,83.29
2022-10-14T09:08:13.840Z,83.89
2022-10-14T09:10:14.899Z,82.11
2022-10-14T09:12:16.234Z,81.97
2022-10-14T09:14:17.527Z,81.36
2022-10-14T09:16:19.261Z,82.55
2022-10-14T09:20:21.660Z,82.91
2022-10-14T09:22:23.690Z,81.23
2022-10-14T09:24:24.533Z,82.17
2022-10-14T09:25:08.232Z,81.42
2022-10-14T09:27:09.263Z,80.96
2022-10-14T09:31:11.620Z,79.42
2022-10-14T09:33:12.427Z,78.71
2022-10-14T09:35:13.660Z,80.15
2022-10-14T09:37:15.290Z,79.41
2022-10-14T09:41:18.022Z,78.95
2022-10-14T09:43:19.272Z,78.66
2022-10-14T09:45:20.591Z,78.01
2022-10-14T09:47:21.870Z,77.99
2022-10-14T09:49:23.408Z,78.57
2022-10-14T09:51:25.053Z,78.1
2022-10-14T09:53:26.580Z,75.19
2022-10-14T09:55:28.394Z,76.18
2022-10-14T09:57:29.261Z,77.38
2022-10-14T09:59:30.524Z,77.29
2022-10-14T10:01:31.642Z,76.77
2022-10-14T10:03:33.061Z,75.37
2022-10-14T10:05:34.440Z,75.76
2022-10-14T10:07:35.607Z,76.25
2022-10-14T10:09:36.563Z,76.65
2022-10-14T10:13:39.274Z,75.57
2022-10-14T10:15:41.118Z,75.66
2022-10-14T10:17:42.901Z,74
2022-10-14T10:19:43.869Z,76.09
2022-10-14T10:23:46.630Z,75.4
2022-10-14T10:25:47.575Z,75.95
2022-10-14T10:27:48.742Z,76.21
2022-10-14T10:29:50.173Z,77.05
2022-10-14T10:31:51.449Z,75.93
2022-10-14T10:33:52.563Z,77.67
2022-10-14T10:35:54.183Z,77.04
2022-10-14T10:37:55.254Z,76.16
2022-10-14T10:39:56.200Z,76.13
2022-10-14T10:43:58.674Z,76.31
2022-10-14T10:45:59.959Z,76.53
2022-10-14T10:48:01.003Z,76.34
2022-10-14T10:50:02.826Z,76.47
2022-10-14T10:52:04.406Z,77.45
2022-10-14T10:56:07.349Z,76.98
2022-10-14T10:58:09.126Z,76.72
2022-10-14T11:00:09.921Z,77.3
2022-10-14T11:02:10.853Z,77.35
2022-10-14T11:04:12.050Z,76.93
2022-10-14T11:06:13.801Z,78.52
2022-10-14T11:08:14.923Z,76.93
2022-10-14T11:12:17.441Z,77.78
2022-10-14T11:14:18.838Z,79.17
2022-10-14T11:16:19.990Z,77.94
2022-10-14T11:18:21.571Z,78.75
2022-10-14T11:20:22.477Z,78.5
2022-10-14T11:22:24.424Z,77.58
2022-10-14T11:24:25.507Z,79.82
2022-10-14T11:26:26.918Z,78.16
2022-10-14T11:28:28.936Z,78.6
2022-10-14T11:30:29.899Z,76.9
2022-10-14T11:32:31.393Z,78.55
2022-10-14T11:34:32.587Z,78.88
2022-10-14T11:36:34.294Z,78.54
2022-10-14T11:38:36.051Z,79.67
2022-10-14T11:40:37.739Z,78.34
2022-10-14T11:44:40.421Z,78
2022-10-14T11:46:41.568Z,77.52
2022-10-14T11:48:43.300Z,77.11
2022-10-14T11:50:45.070Z,77.62
2022-10-14T11:54:48.288Z,77.77
2022-10-14T11:56:57.911Z,78.64
2022-10-14T11:58:51.313Z,78.49
2022-10-14T12:00:52.898Z,77.92
2022-10-14T12:02:54.864Z,78.25
2022-10-14T12:04:56.192Z,78.32
2022-10-14T12:06:57.523Z,78.73
2022-10-14T12:08:59.029Z,78.38
2022-10-14T12:11:00.538Z,78.8
2022-10-14T12:13:01.562Z,78.75
2022-10-14T12:15:03.215Z,78.29
2022-10-14T12:17:04.504Z,79.69
2022-10-14T12:19:05.727Z,77.91
2022-10-14T12:21:07.456Z,79.81
2022-10-14T12:23:08.338Z,79.01
2022-10-14T12:25:09.571Z,77.79
2022-10-14T12:27:11.378Z,78.95
2022-10-14T12:29:12.783Z,78.88
2022-10-14T12:31:14.090Z,78.04
2022-10-14T12:33:18.885Z,77.72
2022-10-14T12:37:18.462Z,79.33
2022-10-14T12:39:19.420Z,78.61
2022-10-14T12:41:20.674Z,79.12
2022-10-14T12:43:22.291Z,78.84
2022-10-14T12:45:24.257Z,80.24
2022-10-14T12:47:25.622Z,78.79
2022-10-14T12:49:26.495Z,79.12
2022-10-14T12:51:27.533Z,79.17
2022-10-14T12:53:28.403Z,80.36
2022-10-14T12:55:29.813Z,79.82
2022-10-14T12:57:31.440Z,80.59
2022-10-14T12:59:32.592Z,80.19
2022-10-14T13:01:36.225Z,80.36
2022-10-14T13:03:35.592Z,81.53
2022-10-14T13:05:37.385Z,80.39
2022-10-14T13:09:39.898Z,81.4
2022-10-14T13:11:41.590Z,81.55
2022-10-14T13:13:42.658Z,82.09
2022-10-14T13:15:43.556Z,82.85
2022-10-14T13:19:46.004Z,82.58
2022-10-14T13:21:47.058Z,83.5
2022-10-14T13:25:50.283Z,82.27
2022-10-14T13:27:51.725Z,83.67
2022-10-14T13:29:52.856Z,84.48
2022-10-14T13:31:53.779Z,84.46
2022-10-14T13:35:56.349Z,85.3
2022-10-14T13:37:57.782Z,84.66
2022-10-14T13:39:59.489Z,83.75
2022-10-14T13:42:00.572Z,84.62
2022-10-14T13:44:02.046Z,85.43
2022-10-14T13:46:03.460Z,87.18
2022-10-14T13:48:04.701Z,87.22
2022-10-14T13:50:05.709Z,87.39
2022-10-14T13:52:07.498Z,87.53
2022-10-14T13:54:09.080Z,88.4
2022-10-14T13:56:10.124Z,88.1
2022-10-14T13:58:12.847Z,88.4
2022-10-14T14:00:40.503Z,89.79
2022-10-14T14:02:14.564Z,90.21
2022-10-14T14:04:15.876Z,89.84
2022-10-14T14:06:16.962Z,89.67
2022-10-14T14:08:40.700Z,90.74
2022-10-14T14:10:20.359Z,91.38
2022-10-14T14:12:21.695Z,91.69
2022-10-14T14:16:23.881Z,91.6
2022-10-14T14:18:27.829Z,90.81
2022-10-14T14:20:25.851Z,90.97
2022-10-14T14:22:27.364Z,91.37
2022-10-14T14:24:28.590Z,91.14
2022-10-14T14:26:29.765Z,91.2
2022-10-14T14:28:30.987Z,90.55
2022-10-14T14:30:32.721Z,91.39
2022-10-14T14:32:33.702Z,90.85
2022-10-14T14:34:34.697Z,91.21
2022-10-14T14:36:50.668Z,90.74
2022-10-14T14:38:37.558Z,90.89
2022-10-14T14:40:38.998Z,90.65
2022-10-14T14:42:40.154Z,91.23
2022-10-14T14:44:41.039Z,91.17
2022-10-14T14:46:42.370Z,90.68
2022-10-14T14:50:44.883Z,91.08
2022-10-14T14:52:46.369Z,90.9
2022-10-14T14:54:47.460Z,90.81
2022-10-14T14:56:49.230Z,90.85
2022-10-14T14:58:51.007Z,91.22
2022-10-14T15:00:51.964Z,91.26
2022-10-14T15:02:52.951Z,91.19
2022-10-14T15:04:54.036Z,91.43
2022-10-14T15:06:55.501Z,90.98
2022-10-14T15:08:57.010Z,90.72
2022-10-14T15:10:57.926Z,90.91
2022-10-14T15:12:59.082Z,91
2022-10-14T15:15:00.911Z,91.05
2022-10-14T15:17:01.879Z,91.1
2022-10-14T15:19:02.751Z,91.46
2022-10-14T15:21:04.090Z,90.8
2022-10-14T15:23:05.596Z,90.8
2022-10-14T15:25:07.291Z,90.7
2022-10-14T15:27:08.590Z,90.42
2022-10-14T15:29:09.810Z,90.69
2022-10-14T15:31:11.026Z,90.76
2022-10-14T15:33:12.123Z,90.77
2022-10-14T15:35:13.419Z,90.83
2022-10-14T15:37:14.702Z,90.52
2022-10-14T15:39:15.603Z,90.77
2022-10-14T15:41:17.151Z,90.73
2022-10-14T15:43:18.254Z,90.86
2022-10-14T15:45:19.363Z,90.79
2022-10-14T15:47:21.063Z,90.98
2022-10-14T15:49:22.671Z,91.19
2022-10-14T15:51:24.168Z,91.47
2022-10-14T15:53:25.422Z,91.53
2022-10-14T15:55:26.620Z,91.87
2022-10-14T15:59:29.508Z,92.99
2022-10-14T16:01:30.441Z,93.53
2022-10-14T16:03:34.612Z,93.96
2022-10-14T16:05:33.007Z,94.18
2022-10-14T16:07:34.765Z,94.54
2022-10-14T16:09:35.900Z,94.89
2022-10-14T16:11:37.656Z,95.07
2022-10-14T16:14:23.282Z,95.23
2022-10-14T16:16:24.951Z,95.32
2022-10-14T16:18:25.925Z,95.44
2022-10-14T16:20:27.158Z,95.56
2022-10-14T16:22:28.100Z,95.75
2022-10-14T16:24:28.986Z,95.92
2022-10-14T16:26:30.832Z,95.97
2022-10-14T16:28:31.933Z,96.04
2022-10-14T16:30:33.159Z,96.16
2022-10-14T16:32:34.777Z,96.27
2022-10-14T16:36:36.754Z,96.47
2022-10-14T16:38:37.762Z,96.58
2022-10-14T16:40:39.356Z,96.61
2022-10-14T16:42:40.601Z,96.65
2022-10-14T16:44:42.207Z,96.62
2022-10-14T16:46:43.223Z,96.42
2022-10-14T16:48:44.432Z,96.1
2022-10-14T16:50:45.907Z,95.94
2022-10-14T16:52:46.896Z,95.54
2022-10-14T16:54:48.549Z,95.25
2022-10-14T16:56:49.523Z,95.2
2022-10-14T16:58:50.482Z,95.27
2022-10-14T17:00:51.592Z,95.15
2022-10-14T17:02:53.099Z,95.25
2022-10-14T17:04:54.229Z,95.35
2022-10-14T17:06:55.406Z,95.42
2022-10-14T17:08:56.952Z,95.41
2022-10-14T17:10:58.114Z,95.35
2022-10-14T17:12:59.483Z,95.4
2022-10-14T17:15:01.002Z,95.53
2022-10-14T17:17:02.136Z,95.38
2022-10-14T17:19:03.271Z,95.19
2022-10-14T17:21:04.698Z,95.16
2022-10-14T17:23:07.914Z,94.76
2022-10-14T17:25:07.182Z,94.7
2022-10-14T17:27:08.499Z,94.8
2022-10-14T17:29:09.643Z,94.8
2022-10-14T17:35:15.125Z,95.03
2022-10-14T17:37:15.855Z,94.98
2022-10-14T17:39:20.131Z,94.89
2022-10-14T17:41:18.351Z,94.96
2022-10-14T17:43:19.777Z,94.7
2022-10-14T17:45:21.516Z,94.81
2022-10-14T17:47:23.770Z,94.98
2022-10-14T17:49:24.682Z,95.06
2022-10-14T17:51:25.805Z,95.14
2022-10-14T17:53:26.821Z,95.3
2022-10-14T17:55:28.066Z,95.4
2022-10-14T17:57:29.564Z,95.48
2022-10-14T17:59:31.355Z,95.52
2022-10-14T18:01:37.615Z,95.49
2022-10-14T18:03:34.366Z,95.41
2022-10-14T18:05:35.352Z,95.44
2022-10-14T18:07:36.971Z,95.43
2022-10-14T18:09:38.521Z,95.44
2022-10-14T18:12:03.898Z,95.41
2022-10-14T18:13:41.123Z,95.46
2022-10-14T18:15:42.089Z,95.56
2022-10-14T18:17:43.412Z,95.64
2022-10-14T18:19:49.725Z,95.8
2022-10-14T18:21:46.398Z,95.85
2022-10-14T18:23:48.187Z,95.66
2022-10-14T18:25:49.824Z,95.63
2022-10-14T18:27:51.345Z,95.68
2022-10-14T18:29:52.667Z,95.57
2022-10-14T18:31:54.423Z,95.62
2022-10-14T18:33:56.066Z,95.65
2022-10-14T18:35:57.883Z,95.19
2022-10-14T18:37:59.155Z,94.32
2022-10-14T18:40:00.848Z,94.15
2022-10-14T18:42:02.036Z,93.76
2022-10-14T18:44:03.818Z,92.45
2022-10-14T18:46:04.722Z,91.64
2022-10-14T18:50:06.974Z,91.2
2022-10-14T18:52:08.237Z,91.08
2022-10-14T18:54:09.557Z,91.71
2022-10-14T19:00:14.540Z,92.68
2022-10-14T19:02:16.039Z,92.76
2022-10-14T19:04:17.610Z,92.89
2022-10-14T19:06:18.490Z,93.16
2022-10-14T19:08:19.872Z,93.46
2022-10-14T19:10:20.989Z,93.81
2022-10-14T19:12:22.586Z,94.15
2022-10-14T19:16:25.262Z,94.64
2022-10-14T19:18:26.828Z,94.63
2022-10-14T19:20:28.381Z,94.83
2022-10-14T19:22:29.359Z,94.9
2022-10-14T19:24:30.683Z,95
2022-10-14T19:28:32.963Z,94.4
2022-10-14T19:30:34.007Z,94.78
2022-10-14T19:32:34.999Z,94.17
2022-10-14T19:34:35.910Z,91.27
2022-10-14T19:36:37.290Z,91.81
2022-10-14T19:38:38.628Z,92.68
2022-10-14T19:40:40.477Z,93.26
2022-10-14T19:44:44.199Z,93.89
2022-10-14T19:46:45.874Z,93.87
2022-10-14T19:48:46.873Z,93.91
2022-10-14T19:50:48.694Z,94.05
2022-10-14T19:52:50.488Z,94.08
2022-10-14T19:54:51.991Z,94.21
2022-10-14T19:58:54.003Z,94.46
2022-10-14T20:00:55.782Z,94.54
2022-10-14T20:02:56.919Z,94.17
2022-10-14T20:04:58.690Z,93.84
2022-10-14T20:06:59.646Z,93.42
2022-10-14T20:09:00.957Z,93.56
2022-10-14T20:11:01.872Z,93.94
2022-10-14T20:15:04.387Z,94.68
2022-10-14T20:17:05.406Z,94.77
2022-10-14T20:19:07.010Z,94.52
2022-10-14T20:21:08.548Z,94.68
2022-10-14T20:23:09.631Z,94.44
2022-10-14T20:25:11.104Z,94.49
2022-10-14T20:27:12.840Z,94.42
2022-10-14T20:29:13.964Z,94.33
2022-10-14T20:31:15.738Z,94.3
2022-10-14T20:33:16.643Z,94.35
2022-10-14T20:35:18.280Z,94.45
2022-10-14T20:37:21.864Z,94.61
2022-10-14T20:41:22.243Z,94.76
2022-10-14T20:43:23.724Z,94.84
2022-10-14T20:45:25.089Z,94.93
2022-10-14T20:47:26.251Z,95.02
2022-10-14T20:49:27.660Z,95.12
2022-10-14T20:51:28.920Z,95.16
2022-10-14T20:53:30.711Z,95.15
2022-10-14T20:55:31.626Z,94.89
2022-10-14T20:57:32.728Z,94.71
2022-10-14T20:59:34.119Z,94.68
2022-10-14T21:01:35.073Z,94.75
2022-10-14T21:03:36.074Z,94.99
2022-10-14T21:05:37.190Z,94.94
2022-10-14T21:07:38.252Z,95.06
2022-10-14T21:09:40.020Z,95.12
2022-10-14T21:11:41.305Z,95.26
2022-10-14T21:13:42.397Z,95.45
2022-10-14T21:15:43.602Z,95.51
2022-10-14T21:17:45.339Z,95.67
2022-10-14T21:19:46.442Z,95.41
2022-10-14T21:21:47.467Z,95.55
2022-10-14T21:23:48.906Z,95.43
2022-10-14T21:27:51.744Z,95.27
2022-10-14T21:29:53.522Z,95.1
2022-10-14T21:31:54.779Z,95.17
2022-10-14T21:33:58.887Z,95.3
2022-10-14T21:35:58.215Z,95.36
2022-10-14T21:40:01.472Z,95.48
2022-10-14T21:42:02.593Z,95.55
2022-10-14T21:44:04.392Z,95.67
2022-10-14T21:46:06.169Z,95.69
2022-10-14T21:48:07.460Z,95.71
2022-10-14T21:50:08.945Z,95.85
2022-10-14T21:52:10.104Z,95.84
2022-10-14T21:54:11.032Z,95.71
2022-10-14T21:56:11.950Z,95.54
2022-10-14T21:58:13.551Z,95.13
2022-10-14T22:00:14.602Z,95.26
2022-10-14T22:02:15.826Z,95.48
2022-10-14T22:04:17.344Z,95.32
2022-10-14T22:06:18.944Z,95.43
2022-10-14T22:08:20.432Z,95.5
2022-10-14T22:10:21.785Z,95.43
2022-10-14T22:12:23.633Z,95.26
2022-10-14T22:14:24.923Z,95.33
2022-10-14T22:16:26.568Z,95.32
2022-10-14T22:18:28.432Z,95.39
2022-10-14T22:22:30.965Z,95.54
2022-10-14T22:24:32.700Z,95.55
2022-10-14T22:26:33.796Z,95.42
2022-10-14T22:28:35.308Z,95.49
2022-10-14T22:30:36.976Z,95.56
2022-10-14T22:32:38.002Z,95.6
2022-10-14T22:34:39.701Z,95.51
2022-10-14T22:36:41.110Z,95.53
2022-10-14T22:38:42.242Z,95.64
2022-10-14T22:40:43.560Z,95.52
2022-10-14T22:42:46.604Z,95.52
2022-10-14T22:44:46.493Z,95.36
2022-10-14T22:46:47.922Z,95.38
2022-10-14T22:48:48.823Z,95.42
2022-10-14T22:50:50.277Z,95.63
2022-10-14T22:52:51.844Z,95.58
2022-10-14T22:54:53.255Z,95.72
2022-10-14T22:56:54.191Z,95.75
2022-10-14T22:59:39.130Z,95.73
2022-10-14T23:01:40.458Z,95.85
2022-10-14T23:03:41.741Z,95.95
2022-10-14T23:05:42.991Z,95.95
2022-10-14T23:07:44.065Z,96.03
2022-10-14T23:09:45.936Z,96.06
2022-10-14T23:11:47.610Z,96.08
2022-10-14T23:13:49.418Z,96.14
2022-10-14T23:15:51.207Z,96.21
2022-10-14T23:17:52.556Z,96.03
2022-10-14T23:19:54.313Z,96.05
2022-10-14T23:21:55.229Z,95.96
2022-10-14T23:23:56.776Z,96.01
2022-10-14T23:25:57.891Z,96.09
2022-10-14T23:27:59.604Z,96.16
2022-10-14T23:30:00.861Z,96.19
2022-10-14T23:32:01.866Z,96.2
2022-10-14T23:34:03.621Z,96.24
2022-10-14T23:36:05.107Z,96.14
2022-10-14T23:38:06.213Z,96.22
2022-10-14T23:40:08.070Z,96.3
2022-10-14T23:42:09.355Z,96.42
2022-10-14T23:44:10.904Z,96.45
2022-10-14T23:48:13.566Z,96.49
2022-10-14T23:50:14.970Z,96.47
2022-10-14T23:52:16.209Z,96.45
2022-10-14T23:54:18.100Z,96.45
2022-10-14T23:58:21.479Z,96.53
